Time;durP1;ratioP1;P1;durP2;ratioP2;P2;SDS_P1;SDS_P2;PMS_P1;PMS_P2;Temp;Humidity;BMP_temperature;BMP_pressure;BME280_temperature;BME280_humidity;BME280_pressure;Samples;Min_cycle;Max_cycle;Signal;HPM_P1;HPM_P2
2021/01/22 00:01:40;;;;;;;1.90;1.40;;;9.20;99.90;;;;;;5059426;28;20141;-76
2021/01/22 00:04:06;;;;;;;3.25;1.70;;;9.20;99.90;;;;;;5051963;28;20036;-76
2021/01/22 00:06:31;;;;;;;2.50;1.60;;;9.10;99.90;;;;;;5048625;28;20029;-76
2021/01/22 00:08:57;;;;;;;1.95;1.50;;;9.20;99.90;;;;;;5051009;28;20526;-76
2021/01/22 00:11:22;;;;;;;1.95;1.50;;;9.20;99.90;;;;;;5049602;28;20467;-76
2021/01/22 00:13:48;;;;;;;4.10;1.90;;;9.20;99.90;;;;;;5049940;28;20040;-76
2021/01/22 00:16:13;;;;;;;4.18;2.00;;;9.20;99.90;;;;;;5062142;28;20063;-76
2021/01/22 00:18:39;;;;;;;4.68;2.13;;;9.10;99.90;;;;;;5050256;28;20040;-76
2021/01/22 00:21:04;;;;;;;4.43;2.17;;;9.20;99.90;;;;;;5069199;28;20475;-76
2021/01/22 00:23:30;;;;;;;3.95;2.35;;;9.20;99.90;;;;;;5064926;28;20024;-76
2021/01/22 00:25:56;;;;;;;6.18;2.30;;;9.10;99.90;;;;;;5062241;28;20364;-76
2021/01/22 00:28:22;;;;;;;4.30;2.67;;;9.10;99.90;;;;;;5058684;28;20065;-76
2021/01/22 00:30:48;;;;;;;5.45;2.30;;;9.20;99.90;;;;;;5068070;28;20039;-76
2021/01/22 00:33:13;;;;;;;3.70;2.42;;;9.20;99.90;;;;;;5052160;28;20025;-76
2021/01/22 00:35:39;;;;;;;5.90;3.00;;;9.20;99.90;;;;;;5048442;28;20021;-76
2021/01/22 00:38:04;;;;;;;4.75;2.78;;;9.10;99.90;;;;;;5047997;28;20017;-77
2021/01/22 00:40:30;;;;;;;6.72;3.00;;;9.10;99.90;;;;;;5065599;28;20023;-76
2021/01/22 00:42:56;;;;;;;5.90;3.03;;;9.20;99.90;;;;;;5064244;28;20070;-76
2021/01/22 00:45:21;;;;;;;6.45;3.00;;;9.20;99.90;;;;;;5062587;28;20094;-76
2021/01/22 00:47:47;;;;;;;6.13;3.30;;;9.20;99.90;;;;;;5061690;28;20029;-76
2021/01/22 00:50:13;;;;;;;4.35;2.65;;;9.20;99.90;;;;;;5051765;28;20028;-76
2021/01/22 00:52:38;;;;;;;4.53;2.80;;;9.20;99.90;;;;;;5061308;28;20029;-76
2021/01/22 00:55:05;;;;;;;6.18;2.80;;;9.30;99.90;;;;;;5048486;28;20028;-76
2021/01/22 00:57:30;;;;;;;5.88;2.88;;;9.30;99.90;;;;;;5050794;28;20032;-76
2021/01/22 00:59:55;;;;;;;4.57;3.03;;;9.40;99.90;;;;;;5054152;28;20017;-76
2021/01/22 01:02:21;;;;;;;6.60;2.65;;;9.30;99.90;;;;;;5057937;28;20557;-76
2021/01/22 01:04:46;;;;;;;4.00;2.63;;;9.30;99.90;;;;;;5060153;28;20039;-76
2021/01/22 01:07:12;;;;;;;3.35;2.33;;;9.40;99.90;;;;;;5062509;28;20035;-76
2021/01/22 01:09:37;;;;;;;4.65;2.60;;;9.40;99.90;;;;;;5065656;28;20020;-76
2021/01/22 01:12:03;;;;;;;3.65;2.38;;;9.40;99.90;;;;;;5069936;28;20123;-76
2021/01/22 01:14:29;;;;;;;4.03;2.35;;;9.50;99.90;;;;;;5070296;28;20174;-76
2021/01/22 01:16:54;;;;;;;4.53;2.30;;;9.50;99.90;;;;;;5062564;28;20116;-76
2021/01/22 01:19:20;;;;;;;3.47;2.22;;;9.60;99.90;;;;;;5054865;28;20025;-75
2021/01/22 01:21:45;;;;;;;3.38;1.90;;;9.60;99.90;;;;;;5063078;28;20020;-76
2021/01/22 01:24:11;;;;;;;3.45;1.95;;;9.70;99.90;;;;;;5069523;28;20032;-76
2021/01/22 01:26:36;;;;;;;2.05;1.65;;;9.70;99.90;;;;;;5051582;28;20126;-76
2021/01/22 01:29:02;;;;;;;2.13;1.48;;;9.80;99.90;;;;;;5055000;28;20025;-75
2021/01/22 01:31:27;;;;;;;3.08;1.60;;;9.90;99.90;;;;;;5058105;28;20047;-76
2021/01/22 01:33:53;;;;;;;2.05;1.40;;;10.00;99.90;;;;;;5059042;28;20404;-76
2021/01/22 01:36:18;;;;;;;3.72;1.42;;;10.00;99.90;;;;;;5067187;28;20032;-76
2021/01/22 01:38:44;;;;;;;1.73;1.45;;;10.00;99.90;;;;;;5054407;28;20106;-76
2021/01/22 01:41:09;;;;;;;2.25;1.17;;;10.00;99.90;;;;;;5066951;28;20040;-76
2021/01/22 01:43:35;;;;;;;1.67;1.10;;;10.00;99.90;;;;;;5059205;28;20478;-76
2021/01/22 01:46:00;;;;;;;2.70;1.00;;;10.10;99.90;;;;;;5064358;28;20571;-76
2021/01/22 01:48:26;;;;;;;1.70;1.20;;;10.10;99.90;;;;;;5065123;28;20025;-76
2021/01/22 01:50:52;;;;;;;4.18;0.90;;;10.10;99.90;;;;;;5053181;28;20036;-76
2021/01/22 01:53:18;;;;;;;1.30;1.05;;;10.20;99.90;;;;;;5070955;28;20115;-75
2021/01/22 01:55:44;;;;;;;1.70;1.10;;;10.20;99.90;;;;;;5060420;28;20125;-76
2021/01/22 01:58:12;;;;;;;2.25;0.90;;;10.30;99.90;;;;;;5052550;28;20095;-76
2021/01/22 02:00:38;;;;;;;0.70;0.70;;;10.30;99.90;;;;;;5058713;28;20033;-76
2021/01/22 02:03:03;;;;;;;1.98;0.80;;;10.40;99.90;;;;;;5051217;28;20086;-76
2021/01/22 02:05:29;;;;;;;1.33;0.77;;;10.40;99.90;;;;;;5051456;28;20033;-76
2021/01/22 02:07:54;;;;;;;1.08;0.75;;;10.60;99.90;;;;;;5052255;28;20036;-76
2021/01/22 02:10:20;;;;;;;0.88;0.70;;;10.60;99.90;;;;;;5050340;28;20120;-76
2021/01/22 02:12:47;;;;;;;0.60;0.60;;;10.70;99.90;;;;;;5049883;28;20391;-75
2021/01/22 02:15:14;;;;;;;0.80;0.80;;;10.70;99.90;;;;;;5056514;28;20036;-76
2021/01/22 02:17:41;;;;;;;3.42;0.60;;;10.70;99.90;;;;;;5056311;28;20096;-76
2021/01/22 02:20:28;;;;;;;0.50;0.50;;;10.70;99.90;;;;;;5056286;28;20021;-76
2021/01/22 02:22:54;;;;;;;0.60;0.50;;;10.80;99.90;;;;;;5050654;28;20047;-76
2021/01/22 02:25:47;;;;;;;0.60;0.60;;;10.90;99.90;;;;;;5052441;28;20060;-75
2021/01/22 02:28:14;;;;;;;0.85;0.60;;;10.90;99.90;;;;;;5055036;28;20048;-76
2021/01/22 02:30:42;;;;;;;0.70;0.65;;;10.90;99.90;;;;;;5061475;28;20079;-76
2021/01/22 02:33:10;;;;;;;0.70;0.40;;;11.00;99.90;;;;;;5055391;28;20024;-75
2021/01/22 02:35:36;;;;;;;0.57;0.50;;;11.00;99.90;;;;;;5050281;28;20542;-74
2021/01/22 02:38:04;;;;;;;0.40;0.40;;;11.00;99.90;;;;;;5050425;28;20031;-76
2021/01/22 02:40:31;;;;;;;0.40;0.40;;;11.10;99.90;;;;;;5052264;28;20025;-76
2021/01/22 02:42:57;;;;;;;0.50;0.50;;;11.10;99.90;;;;;;5051703;28;20120;-75
2021/01/22 02:45:24;;;;;;;0.32;0.30;;;11.10;99.90;;;;;;5057755;28;20067;-76
2021/01/22 02:47:51;;;;;;;1.13;0.60;;;11.00;99.90;;;;;;5066587;28;20028;-75
2021/01/22 02:50:28;;;;;;;1.02;0.60;;;11.10;99.90;;;;;;5060112;28;20031;-75
2021/01/22 02:52:54;;;;;;;0.45;0.45;;;11.10;99.90;;;;;;5050945;28;20044;-76
2021/01/22 02:55:19;;;;;;;0.40;0.40;;;11.10;99.90;;;;;;5060659;28;20029;-75
2021/01/22 02:58:13;;;;;;;0.68;0.60;;;11.10;99.90;;;;;;5060442;28;20028;-76
2021/01/22 03:00:47;;;;;;;0.73;0.60;;;11.20;99.90;;;;;;5064480;28;20066;-76
2021/01/22 03:03:21;;;;;;;1.65;0.50;;;11.20;99.70;;;;;;5056799;28;20053;-76
2021/01/22 03:05:49;;;;;;;0.85;0.70;;;11.10;99.70;;;;;;5050065;28;20057;-76
2021/01/22 03:08:19;;;;;;;2.38;0.55;;;11.10;99.70;;;;;;5052844;28;20032;-76
2021/01/22 03:10:47;;;;;;;0.50;0.50;;;11.00;99.60;;;;;;5056539;28;20043;-76
2021/01/22 03:13:13;;;;;;;3.83;1.13;;;11.10;98.90;;;;;;5050280;28;20025;-76
2021/01/22 03:15:40;;;;;;;1.98;0.32;;;11.20;98.40;;;;;;5067176;28;20021;-77
2021/01/22 03:18:16;;;;;;;1.42;0.88;;;11.10;98.00;;;;;;5062421;28;20025;-76
2021/01/22 03:20:43;;;;;;;0.90;0.70;;;11.10;97.80;;;;;;5052116;28;20025;-75
2021/01/22 03:23:10;;;;;;;0.73;0.65;;;11.20;97.00;;;;;;5065584;28;20036;-76
2021/01/22 03:25:35;;;;;;;2.72;0.63;;;11.10;97.00;;;;;;5066362;28;20392;-75
2021/01/22 03:28:01;;;;;;;0.52;0.52;;;11.10;97.00;;;;;;5055859;28;20027;-76
2021/01/22 03:30:26;;;;;;;2.00;0.55;;;11.10;96.50;;;;;;5060304;28;20033;-76
2021/01/22 03:32:52;;;;;;;1.10;0.70;;;11.10;96.10;;;;;;5052803;28;20083;-76
2021/01/22 03:35:18;;;;;;;0.50;0.47;;;11.20;95.80;;;;;;5058634;28;20526;-76
2021/01/22 03:37:44;;;;;;;0.55;0.55;;;11.10;95.70;;;;;;5049655;28;20506;-75
2021/01/22 03:40:10;;;;;;;1.40;0.60;;;11.10;95.60;;;;;;5063300;28;20025;-76
2021/01/22 03:42:35;;;;;;;1.00;0.70;;;11.10;95.40;;;;;;5056035;28;20123;-76
2021/01/22 03:45:01;;;;;;;0.50;0.50;;;11.10;95.50;;;;;;5049146;28;20566;-75
2021/01/22 03:47:26;;;;;;;0.70;0.60;;;11.10;95.30;;;;;;5051376;28;20036;-76
2021/01/22 03:49:52;;;;;;;2.33;0.60;;;11.00;95.30;;;;;;5059215;28;20036;-76
2021/01/22 03:52:18;;;;;;;1.52;0.50;;;11.00;95.20;;;;;;5050590;28;20044;-75
2021/01/22 03:54:43;;;;;;;0.57;0.50;;;11.00;94.90;;;;;;5049372;28;20102;-76
2021/01/22 03:57:09;;;;;;;0.65;0.65;;;11.00;94.70;;;;;;5048922;28;20013;-76
2021/01/22 03:59:34;;;;;;;0.73;0.60;;;11.00;94.50;;;;;;5059189;28;20044;-76
2021/01/22 04:01:59;;;;;;;0.68;0.68;;;11.00;94.60;;;;;;5049469;28;20096;-76
2021/01/22 04:04:25;;;;;;;0.50;0.50;;;11.00;94.30;;;;;;5048540;28;20422;-76
2021/01/22 04:06:50;;;;;;;0.47;0.43;;;11.00;94.10;;;;;;5052154;28;20017;-75
2021/01/22 04:09:16;;;;;;;1.02;0.50;;;10.90;94.20;;;;;;5064567;28;20021;-76
2021/01/22 04:11:41;;;;;;;1.27;0.60;;;10.90;94.20;;;;;;5054884;28;20104;-76
2021/01/22 04:14:07;;;;;;;0.60;0.60;;;10.90;93.90;;;;;;5061674;28;20044;-76
2021/01/22 04:16:32;;;;;;;0.65;0.65;;;11.00;93.40;;;;;;5058602;28;20025;-76
2021/01/22 04:18:58;;;;;;;1.05;0.75;;;11.00;93.00;;;;;;5048520;28;20033;-75
2021/01/22 04:21:24;;;;;;;0.70;0.50;;;11.00;93.00;;;;;;5048874;28;20187;-75
2021/01/22 04:23:49;;;;;;;0.60;0.60;;;11.00;92.90;;;;;;5056818;28;20029;-76
2021/01/22 04:26:15;;;;;;;0.50;0.50;;;11.00;92.90;;;;;;5062135;28;20021;-76
2021/01/22 04:28:40;;;;;;;0.98;0.63;;;11.00;92.90;;;;;;5048712;28;20110;-76
2021/01/22 04:31:06;;;;;;;0.50;0.50;;;11.00;92.60;;;;;;5049754;28;20021;-75
2021/01/22 04:33:31;;;;;;;0.77;0.70;;;11.00;92.50;;;;;;5063311;28;20467;-75
2021/01/22 04:35:56;;;;;;;1.20;0.40;;;11.00;92.40;;;;;;5062005;28;20017;-75
2021/01/22 04:38:22;;;;;;;0.60;0.60;;;11.00;92.10;;;;;;5055631;28;20028;-75
2021/01/22 04:40:49;;;;;;;0.57;0.57;;;11.00;91.90;;;;;;5054644;28;20025;-76
2021/01/22 04:43:15;;;;;;;1.30;0.70;;;11.10;92.00;;;;;;5053225;28;20104;-76
2021/01/22 04:45:41;;;;;;;1.23;0.60;;;11.00;91.90;;;;;;5052473;28;20075;-76
2021/01/22 04:48:07;;;;;;;0.98;0.88;;;11.00;91.80;;;;;;5059146;28;20548;-76
2021/01/22 04:50:33;;;;;;;1.40;0.52;;;11.00;91.80;;;;;;5067568;28;20111;-75
2021/01/22 04:53:03;;;;;;;0.70;0.60;;;10.90;91.60;;;;;;5068036;28;20029;-76
2021/01/22 04:55:30;;;;;;;0.77;0.52;;;11.00;91.60;;;;;;5052228;28;20060;-75
2021/01/22 04:57:57;;;;;;;3.78;0.75;;;10.90;91.70;;;;;;5060047;28;20021;-76
2021/01/22 05:00:24;;;;;;;0.85;0.70;;;10.90;91.50;;;;;;5067827;28;20047;-77
2021/01/22 05:02:58;;;;;;;1.48;0.60;;;10.90;91.70;;;;;;5060730;28;20032;-75
2021/01/22 05:05:24;;;;;;;1.88;0.70;;;10.90;91.60;;;;;;5071252;28;20028;-75
2021/01/22 05:07:50;;;;;;;1.13;0.70;;;10.90;91.50;;;;;;5067392;28;20074;-76
2021/01/22 05:10:15;;;;;;;3.35;0.70;;;10.80;91.60;;;;;;5055805;28;20032;-75
2021/01/22 05:12:42;;;;;;;0.82;0.80;;;10.80;91.70;;;;;;5053408;28;20029;-76
2021/01/22 05:15:20;;;;;;;0.60;0.60;;;10.80;91.70;;;;;;5052448;28;20032;-76
2021/01/22 05:17:53;;;;;;;0.73;0.65;;;10.80;91.70;;;;;;5063525;28;20103;-75
2021/01/22 05:20:27;;;;;;;1.05;0.63;;;10.80;91.50;;;;;;5053255;28;20032;-76
2021/01/22 05:22:52;;;;;;;1.10;0.70;;;10.80;91.50;;;;;;5062822;28;20487;-76
2021/01/22 05:25:18;;;;;;;0.70;0.70;;;10.80;91.80;;;;;;5057734;28;20060;-76
2021/01/22 05:27:50;;;;;;;2.67;0.63;;;10.70;91.50;;;;;;5052746;28;20028;-76
2021/01/22 05:30:17;;;;;;;1.15;0.80;;;10.70;91.60;;;;;;5052714;28;20032;-76
2021/01/22 05:32:43;;;;;;;1.13;0.70;;;10.70;91.50;;;;;;5054038;28;20115;-75
2021/01/22 05:35:09;;;;;;;0.77;0.63;;;10.80;91.50;;;;;;5064505;28;20523;-76
2021/01/22 05:37:49;;;;;;;0.60;0.60;;;10.70;91.50;;;;;;5068864;28;20510;-76
2021/01/22 05:40:17;;;;;;;1.35;0.60;;;10.70;91.30;;;;;;5065885;28;20078;-76
2021/01/22 05:42:54;;;;;;;1.23;0.77;;;10.80;91.40;;;;;;5052633;28;20469;-75
2021/01/22 05:45:38;;;;;;;2.40;0.60;;;10.70;91.50;;;;;;5068759;28;20124;-76
2021/01/22 05:48:04;;;;;;;1.00;0.57;;;10.70;91.30;;;;;;5055739;28;20064;-76
2021/01/22 05:50:53;;;;;;;1.30;0.80;;;10.80;91.20;;;;;;5056858;28;20051;-76
2021/01/22 05:53:21;;;;;;;0.57;0.57;;;10.80;91.20;;;;;;5069784;28;20048;-76
2021/01/22 05:56:11;;;;;;;0.70;0.65;;;10.80;91.20;;;;;;5050967;28;20033;-76
2021/01/22 05:58:38;;;;;;;0.98;0.70;;;10.70;91.20;;;;;;5061095;28;20028;-76
2021/01/22 06:01:07;;;;;;;0.65;0.55;;;10.70;91.30;;;;;;5051006;28;20782;-76
2021/01/22 06:03:33;;;;;;;0.77;0.50;;;10.80;91.10;;;;;;5070192;28;20430;-75
2021/01/22 06:05:58;;;;;;;1.17;0.57;;;10.80;91.10;;;;;;5069184;28;20036;-76
2021/01/22 06:08:24;;;;;;;0.52;0.50;;;10.80;91.60;;;;;;5058662;28;20475;-76
2021/01/22 06:10:52;;;;;;;1.10;0.60;;;10.80;91.10;;;;;;5066966;28;20029;-76
2021/01/22 06:13:25;;;;;;;1.23;0.90;;;10.70;91.20;;;;;;5054400;28;20047;-76
2021/01/22 06:15:53;;;;;;;1.10;0.68;;;10.70;91.20;;;;;;5055704;28;20028;-75
2021/01/22 06:18:27;;;;;;;1.58;0.50;;;10.70;91.20;;;;;;5050538;28;20029;-76
2021/01/22 06:20:58;;;;;;;0.70;0.70;;;10.70;91.40;;;;;;5064437;28;20032;-75
2021/01/22 06:23:24;;;;;;;1.25;0.75;;;10.70;91.30;;;;;;5055218;28;20028;-76
2021/01/22 06:25:50;;;;;;;1.38;0.52;;;10.70;91.50;;;;;;5053729;28;20125;-76
2021/01/22 06:28:19;;;;;;;0.85;0.80;;;10.70;91.50;;;;;;5064742;28;20040;-75
2021/01/22 06:30:47;;;;;;;2.42;0.68;;;10.70;91.50;;;;;;5060027;28;20551;-76
2021/01/22 06:33:12;;;;;;;1.40;0.60;;;10.70;91.70;;;;;;5057426;28;20033;-76
2021/01/22 06:35:38;;;;;;;1.00;0.60;;;10.70;91.60;;;;;;5069180;28;20494;-75
2021/01/22 06:38:04;;;;;;;0.77;0.68;;;10.70;91.70;;;;;;5057394;28;20021;-75
2021/01/22 06:40:30;;;;;;;0.50;0.50;;;10.70;91.70;;;;;;5066987;28;20032;-75
2021/01/22 06:42:56;;;;;;;1.85;0.80;;;10.70;91.80;;;;;;5055845;28;20021;-75
2021/01/22 06:45:23;;;;;;;0.60;0.60;;;10.60;91.90;;;;;;5050904;28;20064;-76
2021/01/22 06:48:06;;;;;;;3.60;0.68;;;10.70;91.90;;;;;;5067033;28;20039;-76
2021/01/22 06:50:33;;;;;;;1.45;0.80;;;10.60;91.90;;;;;;5057461;28;20048;-75
2021/01/22 06:53:04;;;;;;;1.60;0.60;;;10.60;92.30;;;;;;5065492;28;20090;-76
2021/01/22 06:55:30;;;;;;;;;;;10.60;92.10;;;;;;5063108;28;20043;-76
2021/01/22 06:58:27;;;;;;;1.13;0.80;;;10.60;92.10;;;;;;5052572;28;20348;-75
2021/01/22 07:00:55;;;;;;;0.95;0.70;;;10.60;92.30;;;;;;5050025;28;20029;-76
2021/01/22 07:03:35;;;;;;;3.08;0.75;;;10.60;92.30;;;;;;5050225;28;20102;-76
2021/01/22 07:06:01;;;;;;;1.30;0.90;;;10.60;92.30;;;;;;5061391;28;20028;-76
2021/01/22 07:08:49;;;;;;;1.45;0.95;;;10.60;92.50;;;;;;5051969;28;20033;-76
2021/01/22 07:11:14;;;;;;;3.75;0.70;;;10.60;92.50;;;;;;5048841;28;20036;-75
2021/01/22 07:13:42;;;;;;;2.83;0.80;;;10.60;92.60;;;;;;5049347;28;20033;-76
2021/01/22 07:16:10;;;;;;;1.13;0.77;;;10.60;92.70;;;;;;5051915;28;20480;-76
2021/01/22 07:18:58;;;;;;;2.25;0.93;;;10.50;92.80;;;;;;5058151;28;20036;-76
2021/01/22 07:21:24;;;;;;;1.05;0.90;;;10.60;92.70;;;;;;5048775;28;20418;-76
2021/01/22 07:23:52;;;;;;;1.33;0.73;;;10.60;92.70;;;;;;5064167;28;20033;-75
2021/01/22 07:26:18;;;;;;;0.88;0.60;;;10.60;92.60;;;;;;5061199;28;20036;-76
2021/01/22 07:28:51;;;;;;;2.88;1.00;;;10.70;92.60;;;;;;5049313;28;20438;-75
2021/01/22 07:31:56;;;;;;;1.48;0.68;;;10.70;92.70;;;;;;5050144;28;20483;-75
2021/01/22 07:34:41;;;;;;;1.15;0.80;;;10.70;92.70;;;;;;5054685;28;20082;-75
2021/01/22 07:37:08;;;;;;;4.70;1.05;;;10.70;92.70;;;;;;5049348;28;20050;-77
2021/01/22 07:39:34;;;;;;;1.48;0.85;;;10.80;92.60;;;;;;5058211;28;20119;-75
2021/01/22 07:42:10;;;;;;;3.78;1.17;;;10.80;92.60;;;;;;5054958;28;20096;-77
2021/01/22 07:44:37;;;;;;;1.75;0.85;;;10.80;92.60;;;;;;5053350;28;20112;-77
2021/01/22 07:47:04;;;;;;;1.70;0.82;;;10.80;92.60;;;;;;5054574;28;20041;-77
2021/01/22 07:49:29;;;;;;;0.95;0.80;;;10.80;92.70;;;;;;5052701;28;20029;-76
2021/01/22 07:51:55;;;;;;;2.10;1.00;;;10.90;92.60;;;;;;5056284;28;20349;-77
2021/01/22 07:54:20;;;;;;;2.08;1.08;;;10.90;92.60;;;;;;5061008;28;20365;-77
2021/01/22 07:56:48;;;;;;;1.45;0.85;;;10.90;92.60;;;;;;5050542;28;20033;-77
2021/01/22 07:59:14;;;;;;;1.60;0.80;;;11.00;92.70;;;;;;5062150;28;20264;-80
2021/01/22 08:01:43;;;;;;;1.73;0.85;;;11.00;92.50;;;;;;5061986;28;20112;-77
2021/01/22 08:04:09;;;;;;;1.70;1.05;;;11.10;92.40;;;;;;5060694;28;20732;-76
2021/01/22 08:06:49;;;;;;;1.48;0.73;;;11.00;92.30;;;;;;5074847;28;20020;-74
2021/01/22 08:09:17;;;;;;;3.25;0.90;;;11.10;92.30;;;;;;5056199;28;20115;-75
2021/01/22 08:11:43;;;;;;;0.85;0.82;;;11.10;92.20;;;;;;5052633;28;20164;-76
2021/01/22 08:14:08;;;;;;;2.65;0.90;;;11.20;92.10;;;;;;5062518;28;20033;-76
2021/01/22 08:16:36;;;;;;;2.20;0.90;;;11.20;92.00;;;;;;5063007;28;20033;-76
2021/01/22 08:19:03;;;;;;;1.15;0.80;;;11.20;91.90;;;;;;5059953;28;20033;-76
2021/01/22 08:21:30;;;;;;;0.57;0.50;;;11.20;91.90;;;;;;5063217;28;20017;-76
2021/01/22 08:23:59;;;;;;;1.40;0.75;;;11.30;91.90;;;;;;5060982;28;20024;-76
2021/01/22 08:26:26;;;;;;;0.82;0.63;;;11.30;91.80;;;;;;5062581;28;20036;-75
2021/01/22 08:28:54;;;;;;;0.65;0.65;;;11.30;91.90;;;;;;5061400;28;20029;-75
2021/01/22 08:31:20;;;;;;;2.03;0.70;;;11.30;91.80;;;;;;5063185;28;20036;-77
2021/01/22 08:33:47;;;;;;;4.65;0.95;;;11.30;91.70;;;;;;5064251;28;20024;-79
2021/01/22 08:36:13;;;;;;;4.65;0.88;;;11.30;91.70;;;;;;5066200;28;20028;-78
2021/01/22 08:38:38;;;;;;;1.30;1.02;;;11.30;92.10;;;;;;5064276;28;20032;-79
2021/01/22 08:41:04;;;;;;;1.90;1.02;;;11.30;93.00;;;;;;5065400;28;20036;-78
2021/01/22 08:43:46;;;;;;;5.35;0.60;;;11.10;99.90;;;;;;5061903;28;20021;-79
2021/01/22 08:46:12;;;;;;;1.17;0.60;;;10.20;99.90;;;;;;5063564;28;20791;-78
2021/01/22 08:48:38;;;;;;;1.30;0.63;;;9.70;99.90;;;;;;5065796;28;20050;-78
2021/01/22 08:51:05;;;;;;;1.15;0.70;;;9.40;99.90;;;;;;5063504;28;20036;-78
2021/01/22 08:53:31;;;;;;;0.52;0.43;;;9.30;99.90;;;;;;5064578;28;20029;-78
2021/01/22 08:56:13;;;;;;;0.57;0.50;;;9.20;99.90;;;;;;5065939;28;20123;-78
2021/01/22 08:58:59;;;;;;;0.50;0.50;;;9.10;99.90;;;;;;5062096;28;20032;-79
2021/01/22 09:01:54;;;;;;;0.32;0.32;;;9.10;99.90;;;;;;5061195;28;20035;-78
2021/01/22 09:04:34;;;;;;;0.40;0.40;;;9.00;99.90;;;;;;5065602;28;20033;-78
2021/01/22 09:07:01;;;;;;;0.63;0.50;;;8.90;99.90;;;;;;5063575;28;20459;-79
2021/01/22 09:09:39;;;;;;;0.55;0.43;;;8.90;99.90;;;;;;5060285;28;20036;-77
2021/01/22 09:12:27;;;;;;;0.68;0.50;;;8.90;99.90;;;;;;5063447;28;20056;-76
2021/01/22 09:14:57;;;;;;;0.40;0.40;;;9.00;99.90;;;;;;5065219;28;20682;-80
2021/01/22 09:17:49;;;;;;;0.70;0.70;;;8.90;99.90;;;;;;5062920;28;20879;-76
2021/01/22 09:20:21;;;;;;;0.85;0.60;;;8.90;99.90;;;;;;5063646;28;20035;-80
2021/01/22 09:22:49;;;;;;;0.40;0.40;;;9.00;99.90;;;;;;5068833;28;20028;-81
2021/01/22 09:25:19;;;;;;;0.57;0.40;;;8.90;99.90;;;;;;5068104;28;20051;-77
2021/01/22 09:27:46;;;;;;;1.60;0.50;;;8.90;99.90;;;;;;5067168;28;20127;-80
2021/01/22 09:30:13;;;;;;;0.80;0.50;;;8.90;99.90;;;;;;5063726;28;20028;-78
2021/01/22 09:32:40;;;;;;;0.60;0.60;;;8.90;99.90;;;;;;5068644;28;20050;-86
2021/01/22 09:35:06;;;;;;;1.95;0.60;;;9.00;99.90;;;;;;5067351;28;20036;-81
2021/01/22 09:37:32;;;;;;;1.35;0.70;;;9.10;99.90;;;;;;5066448;28;20031;-76
2021/01/22 09:39:57;;;;;;;1.45;0.85;;;9.10;99.90;;;;;;5066620;28;20020;-82
2021/01/22 09:42:23;;;;;;;0.63;0.50;;;9.10;99.90;;;;;;5068532;28;20376;-85
2021/01/22 09:44:48;;;;;;;1.38;0.40;;;9.10;99.90;;;;;;5066778;28;20409;-84
2021/01/22 09:47:14;;;;;;;1.52;0.95;;;9.10;99.90;;;;;;5066808;28;20032;-86
2021/01/22 09:49:39;;;;;;;1.10;0.70;;;9.10;99.90;;;;;;5067663;28;20493;-85
2021/01/22 09:52:05;;;;;;;1.23;0.60;;;9.10;99.90;;;;;;5068361;28;20021;-82
2021/01/22 09:54:31;;;;;;;1.05;0.77;;;9.10;99.90;;;;;;5067281;28;20025;-80
2021/01/22 09:56:56;;;;;;;1.33;0.90;;;9.10;99.90;;;;;;5069053;28;20027;-84
2021/01/22 09:59:22;;;;;;;0.75;0.75;;;9.20;99.90;;;;;;5059435;28;20052;-81
2021/01/22 10:01:47;;;;;;;2.95;0.90;;;9.00;99.90;;;;;;5065462;28;20103;-76
2021/01/22 10:04:13;;;;;;;1.98;0.70;;;9.10;99.90;;;;;;5066846;28;20025;-75
2021/01/22 10:06:38;;;;;;;0.88;0.75;;;9.10;99.90;;;;;;5065101;28;20028;-77
2021/01/22 10:09:04;;;;;;;0.63;0.52;;;9.20;99.90;;;;;;5064283;28;20238;-77
2021/01/22 10:11:30;;;;;;;0.63;0.63;;;9.30;99.90;;;;;;5065995;28;20036;-83
2021/01/22 10:13:59;;;;;;;1.52;0.70;;;9.30;99.90;;;;;;5055163;28;20652;-81
2021/01/22 10:16:28;;;;;;;0.85;0.60;;;9.40;99.90;;;;;;5058268;28;20036;-81
2021/01/22 10:18:56;;;;;;;0.80;0.57;;;9.30;99.90;;;;;;5065181;28;20012;-79
2021/01/22 10:21:23;;;;;;;0.93;0.70;;;9.40;99.90;;;;;;5066425;28;20085;-79
2021/01/22 10:23:50;;;;;;;0.45;0.43;;;9.40;99.90;;;;;;5060674;28;20107;-80
2021/01/22 10:26:16;;;;;;;4.28;0.70;;;9.20;99.90;;;;;;5063095;28;20025;-79
2021/01/22 10:28:42;;;;;;;1.08;0.57;;;9.30;99.90;;;;;;5062794;28;20100;-82
2021/01/22 10:31:08;;;;;;;1.23;0.60;;;9.20;99.90;;;;;;5058447;28;20182;-81
2021/01/22 10:33:34;;;;;;;3.05;0.60;;;9.20;99.90;;;;;;5061688;28;20053;-82
2021/01/22 10:35:59;;;;;;;0.68;0.60;;;9.00;99.90;;;;;;5064896;28;20037;-82
2021/01/22 10:38:26;;;;;;;0.43;0.30;;;9.10;99.90;;;;;;5066881;28;20059;-82
2021/01/22 10:40:55;;;;;;;1.85;0.60;;;9.10;99.90;;;;;;5067515;28;20031;-82
2021/01/22 10:43:22;;;;;;;3.30;0.90;;;9.10;99.90;;;;;;5066045;28;20024;-82
2021/01/22 10:45:48;;;;;;;1.00;0.70;;;9.10;99.90;;;;;;5066247;28;20198;-81
2021/01/22 10:48:14;;;;;;;1.10;0.98;;;9.20;99.90;;;;;;5064929;28;20029;-82
2021/01/22 10:50:40;;;;;;;0.80;0.65;;;9.20;99.90;;;;;;5061299;28;20508;-82
2021/01/22 10:53:05;;;;;;;0.40;0.40;;;9.00;99.90;;;;;;5065688;28;20033;-86
2021/01/22 10:55:31;;;;;;;0.77;0.28;;;9.00;99.90;;;;;;5066527;28;20055;-83
2021/01/22 10:57:57;;;;;;;0.70;0.43;;;9.10;99.90;;;;;;5056338;28;20025;-82
2021/01/22 11:00:22;;;;;;;0.40;0.40;;;9.00;99.90;;;;;;5057023;28;20436;-83
2021/01/22 11:02:48;;;;;;;0.30;0.30;;;9.10;99.90;;;;;;5061863;28;20041;-83
2021/01/22 11:05:14;;;;;;;0.50;0.50;;;9.10;99.90;;;;;;5058775;28;20036;-82
2021/01/22 11:07:39;;;;;;;0.30;0.30;;;9.00;99.90;;;;;;5063246;28;20036;-82
2021/01/22 11:10:05;;;;;;;0.40;0.40;;;9.00;99.90;;;;;;5060177;28;20490;-83
2021/01/22 11:12:31;;;;;;;0.40;0.40;;;9.10;99.90;;;;;;5060552;28;20032;-82
2021/01/22 11:14:56;;;;;;;0.30;0.30;;;9.10;99.90;;;;;;5063065;28;20028;-83
2021/01/22 11:17:22;;;;;;;0.65;0.55;;;9.00;99.90;;;;;;5064790;28;20043;-83
2021/01/22 11:19:47;;;;;;;0.30;0.30;;;9.00;99.90;;;;;;5058309;28;20052;-83
2021/01/22 11:22:13;;;;;;;1.02;0.50;;;8.80;99.90;;;;;;5061090;28;20747;-83
2021/01/22 11:24:38;;;;;;;0.35;0.35;;;8.80;99.90;;;;;;5063650;28;20154;-83
2021/01/22 11:27:04;;;;;;;0.40;0.40;;;8.80;99.90;;;;;;5061472;28;20021;-83
2021/01/22 11:29:29;;;;;;;0.40;0.30;;;8.80;99.90;;;;;;5059260;28;20032;-83
2021/01/22 11:31:55;;;;;;;1.10;0.63;;;8.70;99.90;;;;;;5065269;28;20082;-83
2021/01/22 11:34:20;;;;;;;0.70;0.57;;;8.80;99.90;;;;;;5054182;28;20509;-82
2021/01/22 11:36:46;;;;;;;0.43;0.43;;;8.80;99.90;;;;;;5061990;28;20241;-80
2021/01/22 11:39:11;;;;;;;0.55;0.50;;;8.80;99.90;;;;;;5063520;28;20032;-80
2021/01/22 11:41:37;;;;;;;0.20;0.20;;;8.80;99.90;;;;;;5066016;28;20664;-78
2021/01/22 11:44:02;;;;;;;0.40;0.40;;;8.80;99.90;;;;;;5060956;28;20028;-79
2021/01/22 11:46:28;;;;;;;0.95;0.40;;;8.80;99.90;;;;;;5065225;28;20071;-78
2021/01/22 11:48:53;;;;;;;0.40;0.40;;;8.70;99.90;;;;;;5061423;28;20127;-78
2021/01/22 11:51:19;;;;;;;0.63;0.40;;;8.90;99.90;;;;;;5057291;28;20033;-79
2021/01/22 11:53:45;;;;;;;0.57;0.40;;;8.90;99.90;;;;;;5059612;28;20064;-78
2021/01/22 11:56:10;;;;;;;1.48;0.60;;;8.90;99.90;;;;;;5063011;28;20028;-78
2021/01/22 11:58:36;;;;;;;0.50;0.50;;;9.00;99.90;;;;;;5063526;28;20025;-83
2021/01/22 12:01:04;;;;;;;1.33;0.50;;;9.00;99.90;;;;;;5054701;28;20115;-81
2021/01/22 12:03:29;;;;;;;0.40;0.40;;;9.10;99.90;;;;;;5061481;28;20034;-81
2021/01/22 12:05:54;;;;;;;0.95;0.47;;;9.00;99.90;;;;;;5061855;28;20036;-81
2021/01/22 12:08:20;;;;;;;1.58;0.70;;;9.00;99.90;;;;;;5063865;28;20548;-80
2021/01/22 12:10:46;;;;;;;0.40;0.40;;;9.10;99.90;;;;;;5061247;28;20446;-80
2021/01/22 12:13:11;;;;;;;0.80;0.60;;;9.20;99.90;;;;;;5063764;28;20044;-79
2021/01/22 12:15:37;;;;;;;1.20;0.43;;;8.90;99.70;;;;;;5065504;28;20046;-79
2021/01/22 12:18:03;;;;;;;1.33;0.60;;;8.90;99.90;;;;;;5062521;28;20090;-79
2021/01/22 12:20:29;;;;;;;0.82;0.40;;;8.90;99.90;;;;;;5061265;28;20021;-79
2021/01/22 12:22:54;;;;;;;0.63;0.55;;;8.80;99.70;;;;;;5062615;28;20119;-74
2021/01/22 12:25:20;;;;;;;2.05;0.80;;;8.80;99.90;;;;;;5061672;28;20028;-77
2021/01/22 12:27:45;;;;;;;0.63;0.50;;;8.80;99.20;;;;;;5063246;28;20398;-76
2021/01/22 12:30:11;;;;;;;0.60;0.60;;;8.80;99.10;;;;;;5063291;28;20025;-81
2021/01/22 12:32:36;;;;;;;1.17;0.50;;;8.80;98.60;;;;;;5061667;28;20033;-84
2021/01/22 12:35:03;;;;;;;0.65;0.60;;;8.90;99.20;;;;;;5066372;28;20025;-81
2021/01/22 12:37:28;;;;;;;0.80;0.65;;;8.80;98.60;;;;;;5064135;28;20039;-77
2021/01/22 12:39:54;;;;;;;0.60;0.60;;;8.90;98.20;;;;;;5060096;28;20025;-77
2021/01/22 12:42:19;;;;;;;1.27;0.52;;;8.90;98.40;;;;;;5062818;28;20441;-76
2021/01/22 12:44:45;;;;;;;2.10;0.70;;;8.90;98.40;;;;;;5065538;28;20052;-76
2021/01/22 12:47:10;;;;;;;0.75;0.65;;;8.90;98.10;;;;;;5067901;28;20526;-77
2021/01/22 12:49:37;;;;;;;1.27;0.75;;;8.90;98.10;;;;;;5065461;28;20079;-77
2021/01/22 12:52:03;;;;;;;3.05;0.70;;;8.90;98.80;;;;;;5064614;28;20033;-77
2021/01/22 12:54:28;;;;;;;0.57;0.50;;;9.00;98.70;;;;;;5063931;28;20047;-76